createdAt,value
2023-01-25T00:00:24.368Z,33.45
2023-01-25T00:02:53.747Z,32.42
2023-01-25T00:05:23.083Z,35.60
2023-01-25T00:07:52.396Z,33.55
2023-01-25T00:10:23.460Z,30.77
2023-01-25T00:12:52.730Z,28.75
2023-01-25T00:15:21.850Z,22.95
2023-01-25T00:17:51.127Z,27.10
2023-01-25T00:20:20.791Z,21.58
2023-01-25T00:22:50.223Z,30.90
2023-01-25T00:25:19.714Z,25.88
2023-01-25T00:27:50.289Z,25.35
2023-01-25T00:30:19.643Z,25.75
2023-01-25T00:32:54.266Z,24.50
2023-01-25T00:35:23.624Z,23.33
2023-01-25T00:37:55.200Z,22.60
2023-01-25T00:40:24.534Z,23.95
2023-01-25T00:42:55.977Z,25.98
2023-01-25T00:45:25.426Z,27.80
2023-01-25T00:47:57.635Z,27.95
2023-01-25T00:50:27.323Z,27.60
2023-01-25T00:52:56.562Z,29.42
2023-01-25T00:55:25.968Z,27.60
2023-01-25T00:57:58.638Z,22.65
2023-01-25T01:00:27.924Z,25.80
2023-01-25T01:02:57.272Z,22.90
2023-01-25T01:05:27.704Z,26.95
2023-01-25T01:07:59.148Z,26.45
2023-01-25T01:10:28.480Z,22.70
2023-01-25T01:12:59.349Z,24.15
2023-01-25T01:15:28.525Z,25.65
2023-01-25T01:17:57.849Z,22.00
2023-01-25T01:20:27.407Z,24.67
2023-01-25T01:22:56.752Z,22.10
2023-01-25T01:25:26.003Z,24.48
2023-01-25T01:27:55.373Z,24.80
2023-01-25T01:30:26.379Z,21.17
2023-01-25T01:32:56.225Z,24.38
2023-01-25T01:35:26.808Z,21.42
2023-01-25T01:37:56.316Z,30.23
2023-01-25T01:40:26.402Z,22.70
2023-01-25T01:43:01.006Z,21.52
2023-01-25T01:45:56.389Z,19.58
2023-01-25T01:48:39.855Z,23.90
2023-01-25T01:51:17.581Z,20.45
2023-01-25T01:53:54.150Z,21.10
2023-01-25T01:56:28.906Z,21.20
2023-01-25T01:59:04.093Z,24.17
2023-01-25T02:01:36.332Z,24.15
2023-01-25T02:04:08.532Z,21.85
2023-01-25T02:06:45.373Z,25.27
2023-01-25T02:09:17.886Z,22.95
2023-01-25T02:11:48.570Z,25.02
2023-01-25T02:14:18.947Z,26.25
2023-01-25T02:16:49.606Z,22.80
2023-01-25T02:19:31.821Z,22.98
2023-01-25T02:22:07.878Z,29.40
2023-01-25T02:24:39.998Z,26.58
2023-01-25T02:27:10.464Z,23.08
2023-01-25T02:29:40.919Z,23.10
2023-01-25T02:32:10.257Z,27.23
2023-01-25T02:34:39.584Z,22.88
2023-01-25T02:37:14.447Z,22.67
2023-01-25T02:39:44.145Z,23.42
2023-01-25T02:42:14.762Z,24.52
2023-01-25T02:44:44.909Z,22.30
2023-01-25T02:47:14.239Z,22.52
2023-01-25T02:49:43.884Z,21.42
2023-01-25T02:52:13.397Z,21.67
2023-01-25T02:54:42.503Z,24.02
2023-01-25T02:57:11.708Z,19.52
2023-01-25T03:02:17.298Z,21.38
2023-01-25T03:04:46.459Z,18.55
2023-01-25T03:07:16.212Z,23.15
2023-01-25T03:09:46.867Z,19.08
2023-01-25T03:12:16.482Z,25.10
2023-01-25T03:14:48.993Z,19.40
2023-01-25T03:17:20.984Z,26.45
2023-01-25T03:19:50.585Z,24.02
2023-01-25T03:22:20.351Z,24.25
2023-01-25T03:24:50.004Z,20.83
2023-01-25T03:27:20.722Z,28.30
2023-01-25T03:29:55.746Z,20.10
2023-01-25T03:32:28.846Z,22.77
2023-01-25T03:34:59.223Z,23.52
2023-01-25T03:37:31.538Z,23.20
2023-01-25T03:40:02.183Z,18.58
2023-01-25T03:42:32.865Z,23.80
2023-01-25T03:45:03.440Z,22.50
2023-01-25T03:47:33.454Z,20.50
2023-01-25T03:50:03.008Z,25.33
2023-01-25T03:52:38.662Z,24.27
2023-01-25T03:55:10.972Z,24.05
2023-01-25T03:57:43.767Z,22.17
2023-01-25T04:00:15.891Z,22.98
2023-01-25T04:02:47.971Z,22.95
2023-01-25T04:05:20.998Z,23.58
2023-01-25T04:07:50.524Z,21.08
2023-01-25T04:10:25.881Z,20.17
2023-01-25T04:12:56.687Z,18.85
2023-01-25T04:15:27.972Z,22.60
2023-01-25T04:18:01.797Z,20.55
2023-01-25T04:20:31.539Z,20.52
2023-01-25T04:23:01.579Z,18.90
2023-01-25T04:25:37.961Z,22.23
2023-01-25T04:28:13.238Z,23.45
2023-01-25T04:30:44.419Z,18.88
2023-01-25T04:33:14.819Z,17.63
2023-01-25T04:35:45.667Z,19.40
2023-01-25T04:38:18.271Z,19.02
2023-01-25T04:40:48.537Z,21.75
2023-01-25T04:43:18.365Z,18.65
2023-01-25T04:45:49.540Z,17.73
2023-01-25T04:48:25.710Z,21.13
2023-01-25T04:50:59.621Z,17.52
2023-01-25T04:53:29.580Z,18.10
2023-01-25T04:56:02.486Z,17.48
2023-01-25T04:58:36.792Z,21.13
2023-01-25T05:01:08.145Z,20.85
2023-01-25T05:03:37.588Z,20.13
2023-01-25T05:06:10.927Z,19.80
2023-01-25T05:08:40.183Z,21.02
2023-01-25T05:11:09.813Z,21.40
2023-01-25T05:14:03.280Z,20.17
2023-01-25T05:16:38.233Z,27.40
2023-01-25T05:19:10.670Z,20.85
2023-01-25T05:22:01.875Z,21.27
2023-01-25T05:24:41.806Z,21.75
2023-01-25T05:27:14.429Z,20.88
2023-01-25T05:30:08.973Z,19.00
2023-01-25T05:32:56.064Z,23.65
2023-01-25T05:35:27.044Z,24.48
2023-01-25T05:37:58.966Z,31.00
2023-01-25T05:40:29.106Z,22.38
2023-01-25T05:43:02.586Z,25.13
2023-01-25T05:45:33.777Z,23.63
2023-01-25T05:48:06.299Z,24.00
2023-01-25T05:50:36.226Z,24.40
2023-01-25T05:53:08.778Z,21.50
2023-01-25T05:55:39.840Z,23.25
2023-01-25T05:58:12.617Z,23.63
2023-01-25T06:00:42.279Z,21.27
2023-01-25T06:05:46.986Z,18.85
2023-01-25T06:08:16.270Z,19.63
2023-01-25T06:10:49.432Z,23.60
2023-01-25T06:13:18.689Z,23.50
2023-01-25T06:15:53.635Z,21.90
2023-01-25T06:18:50.327Z,23.95
2023-01-25T06:21:38.398Z,23.52
2023-01-25T06:24:08.525Z,22.23
2023-01-25T06:26:38.136Z,24.05
2023-01-25T06:29:08.243Z,23.38
2023-01-25T06:31:37.535Z,21.90
2023-01-25T06:34:08.765Z,25.95
2023-01-25T06:36:38.340Z,21.83
2023-01-25T06:39:07.664Z,20.15
2023-01-25T06:41:36.852Z,28.65
2023-01-25T06:44:06.688Z,19.08
2023-01-25T06:46:36.407Z,21.95
2023-01-25T06:49:07.117Z,25.02
2023-01-25T06:51:36.363Z,24.90
2023-01-25T06:54:05.908Z,21.98
2023-01-25T06:56:35.565Z,24.50
2023-01-25T06:59:04.872Z,25.20
2023-01-25T07:01:35.115Z,25.75
2023-01-25T07:04:04.876Z,22.95
2023-01-25T07:06:36.143Z,21.95
2023-01-25T07:09:07.262Z,22.20
2023-01-25T07:11:37.206Z,23.55
2023-01-25T07:14:07.024Z,18.75
2023-01-25T07:16:38.772Z,23.75
2023-01-25T07:19:09.225Z,25.25
2023-01-25T07:21:40.446Z,23.05
2023-01-25T07:24:14.772Z,22.77
2023-01-25T07:26:44.555Z,22.38
2023-01-25T07:29:15.830Z,25.45
2023-01-25T07:31:46.171Z,23.38
2023-01-25T07:34:15.594Z,25.70
2023-01-25T07:36:47.121Z,24.55
2023-01-25T07:39:17.291Z,24.00
2023-01-25T07:41:47.824Z,24.70
2023-01-25T07:44:21.015Z,19.92
2023-01-25T07:46:56.935Z,30.10
2023-01-25T07:49:26.536Z,25.05
2023-01-25T07:51:57.189Z,23.50
2023-01-25T07:54:26.729Z,23.15
2023-01-25T07:56:57.992Z,21.40
2023-01-25T07:59:28.053Z,24.20
2023-01-25T08:01:58.197Z,21.10
2023-01-25T08:04:27.940Z,20.45
2023-01-25T08:07:01.618Z,21.23
2023-01-25T08:12:35.947Z,22.25
2023-01-25T08:15:10.227Z,25.40
2023-01-25T08:17:40.488Z,19.27
2023-01-25T08:20:12.702Z,23.00
2023-01-25T08:22:43.381Z,23.48
2023-01-25T08:25:12.789Z,21.77
2023-01-25T08:27:42.003Z,26.55
2023-01-25T08:30:13.132Z,23.90
2023-01-25T08:32:42.581Z,24.52
2023-01-25T08:35:13.667Z,21.15
2023-01-25T08:37:46.695Z,25.70
2023-01-25T08:40:16.110Z,26.60
2023-01-25T08:42:46.127Z,25.10
2023-01-25T08:45:20.126Z,22.98
2023-01-25T08:47:53.727Z,29.15
2023-01-25T08:50:23.405Z,22.08
2023-01-25T08:52:55.223Z,22.40
2023-01-25T08:55:24.628Z,27.52
2023-01-25T08:57:56.400Z,29.30
2023-01-25T09:00:26.246Z,25.48
2023-01-25T09:02:56.454Z,24.27
2023-01-25T09:05:26.576Z,24.27
2023-01-25T09:07:57.396Z,24.40
2023-01-25T09:10:26.932Z,25.77
2023-01-25T09:12:56.585Z,25.85
2023-01-25T09:15:26.045Z,33.40
2023-01-25T09:17:57.240Z,29.60
2023-01-25T09:20:27.506Z,34.17
2023-01-25T09:22:58.795Z,33.70
2023-01-25T09:25:28.304Z,29.52
2023-01-25T09:27:57.900Z,31.95
2023-01-25T09:30:40.840Z,34.60
2023-01-25T09:33:26.823Z,31.95
2023-01-25T09:35:56.621Z,35.22
2023-01-25T09:38:27.978Z,30.50
2023-01-25T09:41:13.904Z,29.30
2023-01-25T09:44:14.764Z,28.92
2023-01-25T09:46:49.094Z,28.08
2023-01-25T09:52:05.625Z,46.40
2023-01-25T09:54:47.007Z,34.17
2023-01-25T09:57:20.904Z,31.60
2023-01-25T09:59:53.044Z,31.10
2023-01-25T10:02:37.460Z,30.83
2023-01-25T10:05:13.762Z,33.47
2023-01-25T10:07:55.078Z,35.25
2023-01-25T10:10:34.616Z,35.92
2023-01-25T10:13:04.909Z,34.85
2023-01-25T10:15:41.693Z,39.97
2023-01-25T10:18:22.473Z,42.58
2023-01-25T10:20:58.511Z,34.58
2023-01-25T10:23:40.347Z,36.42
2023-01-25T10:26:20.412Z,36.80
2023-01-25T10:28:56.035Z,36.58
2023-01-25T10:31:32.637Z,33.15
2023-01-25T10:34:12.932Z,27.75
2023-01-25T10:36:43.906Z,30.80
2023-01-25T10:39:13.572Z,30.45
2023-01-25T10:41:48.298Z,24.33
2023-01-25T10:44:24.784Z,27.48
2023-01-25T10:47:01.103Z,28.33
2023-01-25T10:49:41.454Z,35.28
2023-01-25T10:52:18.078Z,30.98
2023-01-25T10:54:50.387Z,28.13
2023-01-25T10:57:23.858Z,26.42
2023-01-25T10:59:54.674Z,24.13
2023-01-25T11:02:45.169Z,30.35
2023-01-25T11:05:27.091Z,28.52
2023-01-25T11:07:56.982Z,27.80
2023-01-25T11:10:33.985Z,32.80
2023-01-25T11:13:26.635Z,36.47
2023-01-25T11:15:58.551Z,38.28
2023-01-25T11:18:31.741Z,32.55
2023-01-25T11:21:08.973Z,34.53
2023-01-25T11:23:38.529Z,35.20
2023-01-25T11:26:17.750Z,35.88
2023-01-25T11:28:49.775Z,52.40
2023-01-25T11:31:24.251Z,42.50
2023-01-25T11:33:53.874Z,42.85
2023-01-25T11:36:31.767Z,38.50
2023-01-25T11:39:16.086Z,35.88
2023-01-25T11:42:04.967Z,33.55
2023-01-25T11:45:04.639Z,37.15
2023-01-25T11:47:45.442Z,34.85
2023-01-25T11:50:21.351Z,31.65
2023-01-25T11:53:05.675Z,33.70
2023-01-25T11:55:47.102Z,36.13
2023-01-25T11:58:39.246Z,41.13
2023-01-25T12:01:18.767Z,41.45
2023-01-25T12:04:15.490Z,44.67
2023-01-25T12:06:58.618Z,36.10
2023-01-25T12:09:39.852Z,35.80
2023-01-25T12:12:20.560Z,34.03
2023-01-25T12:15:08.593Z,39.65
2023-01-25T12:17:55.080Z,36.88
2023-01-25T12:21:00.103Z,39.78
2023-01-25T12:23:42.299Z,38.20
2023-01-25T12:26:22.335Z,33.30
2023-01-25T12:28:58.686Z,34.55
2023-01-25T12:31:37.493Z,32.35
2023-01-25T12:34:13.033Z,38.85
2023-01-25T12:36:46.089Z,35.40
2023-01-25T12:39:22.081Z,37.67
2023-01-25T12:41:55.207Z,36.20
2023-01-25T12:44:29.132Z,35.28
2023-01-25T12:47:06.162Z,39.22
2023-01-25T12:49:42.329Z,36.33
2023-01-25T12:52:22.776Z,44.78
2023-01-25T12:54:56.970Z,53.20
2023-01-25T12:57:33.050Z,54.85
2023-01-25T13:00:10.480Z,48.30
2023-01-25T13:03:08.831Z,52.28
2023-01-25T13:05:43.463Z,48.85
2023-01-25T13:08:32.099Z,49.72
2023-01-25T13:11:13.378Z,55.42
2023-01-25T13:13:43.919Z,55.40
2023-01-25T13:16:41.547Z,44.28
2023-01-25T16:30:45.802Z,62.40
2023-01-25T16:33:15.786Z,61.37
2023-01-25T16:35:45.958Z,51.88
2023-01-25T16:38:15.120Z,62.33
2023-01-25T16:40:45.027Z,53.47
2023-01-25T16:43:14.935Z,60.47
2023-01-25T16:45:46.403Z,66.35
2023-01-25T16:48:16.913Z,56.63
2023-01-25T16:50:46.419Z,58.00
2023-01-25T16:53:15.789Z,58.97
2023-01-25T16:55:45.207Z,57.38
2023-01-25T16:58:14.737Z,62.53
2023-01-25T17:00:46.332Z,59.80
2023-01-25T17:03:15.711Z,61.20
2023-01-25T17:05:45.340Z,64.00
2023-01-25T17:08:14.667Z,65.32
2023-01-25T17:10:44.907Z,64.55
2023-01-25T17:13:15.441Z,65.32
2023-01-25T17:15:46.813Z,63.28
2023-01-25T17:18:16.291Z,62.92
2023-01-25T17:20:45.927Z,59.67
2023-01-25T17:23:15.304Z,67.75
2023-01-25T17:25:44.806Z,64.70
2023-01-25T17:28:15.213Z,58.33
2023-01-25T17:30:46.012Z,61.88
2023-01-25T17:33:17.845Z,60.05
2023-01-25T17:35:47.528Z,67.80
2023-01-25T17:38:18.801Z,62.50
2023-01-25T17:40:49.773Z,59.13
2023-01-25T17:43:19.294Z,61.88
2023-01-25T17:45:50.165Z,57.67
2023-01-25T17:48:19.700Z,56.85
2023-01-25T17:50:49.165Z,58.38
2023-01-25T17:53:18.458Z,62.25
2023-01-25T17:55:48.450Z,54.63
2023-01-25T17:58:18.064Z,55.08
2023-01-25T18:00:48.138Z,54.00
2023-01-25T18:03:19.399Z,55.10
2023-01-25T18:05:49.037Z,62.13
2023-01-25T18:08:18.416Z,54.00
2023-01-25T18:10:47.725Z,62.80
2023-01-25T18:13:17.011Z,62.05
2023-01-25T18:15:46.354Z,60.05
2023-01-25T18:18:16.331Z,60.70
2023-01-25T18:20:47.404Z,58.50
2023-01-25T18:23:17.568Z,64.68
2023-01-25T18:25:47.852Z,51.67
2023-01-25T18:28:18.446Z,58.42
2023-01-25T18:30:55.453Z,55.28
2023-01-25T18:33:25.614Z,55.58
2023-01-25T18:36:01.900Z,63.67
2023-01-25T18:38:33.291Z,61.05
2023-01-25T18:41:02.701Z,57.45
2023-01-25T18:43:33.685Z,61.13
2023-01-25T18:46:03.795Z,57.95
2023-01-25T18:48:34.654Z,58.33
2023-01-25T18:51:11.301Z,62.40
2023-01-25T18:53:43.013Z,69.70
2023-01-25T18:56:15.315Z,66.28
2023-01-25T18:58:46.332Z,61.35
2023-01-25T19:01:17.295Z,58.00
2023-01-25T19:03:50.228Z,63.05
2023-01-25T19:06:21.887Z,60.88
2023-01-25T19:08:54.574Z,62.22
2023-01-25T19:11:25.077Z,58.22
2023-01-25T19:13:54.605Z,65.20
2023-01-25T19:16:25.679Z,69.43
2023-01-25T19:18:56.099Z,60.28
2023-01-25T19:21:28.640Z,67.63
2023-01-25T19:23:58.349Z,62.10
2023-01-25T19:26:28.368Z,67.38
2023-01-25T19:28:58.108Z,63.92
2023-01-25T19:31:32.148Z,61.58
2023-01-25T19:34:03.483Z,68.88
2023-01-25T19:36:36.269Z,61.65
2023-01-25T19:39:10.202Z,59.33
2023-01-25T19:41:40.714Z,63.97
2023-01-25T19:44:14.057Z,67.40
2023-01-25T19:46:44.300Z,69.38
2023-01-25T19:49:15.204Z,64.30
2023-01-25T19:51:53.181Z,67.30
2023-01-25T19:54:24.401Z,65.00
2023-01-25T19:56:53.983Z,67.15
2023-01-25T19:59:26.960Z,67.35
2023-01-25T20:01:56.507Z,63.80
2023-01-25T20:04:26.432Z,59.33
2023-01-25T20:07:00.101Z,56.10
2023-01-25T20:09:29.864Z,61.70
2023-01-25T20:12:00.992Z,60.88
2023-01-25T20:14:30.822Z,56.08
2023-01-25T20:17:00.989Z,52.53
2023-01-25T20:19:30.619Z,62.17
2023-01-25T20:22:03.352Z,57.53
2023-01-25T20:24:32.968Z,66.07
2023-01-25T20:27:04.258Z,57.67
2023-01-25T20:29:33.812Z,64.60
2023-01-25T20:32:05.749Z,58.85
2023-01-25T20:34:35.236Z,56.38
2023-01-25T20:37:06.100Z,58.22
2023-01-25T20:39:36.025Z,58.78
2023-01-25T20:42:05.874Z,63.08
2023-01-25T20:44:35.741Z,53.03
2023-01-25T20:47:05.224Z,60.10
2023-01-25T20:49:35.415Z,59.95
2023-01-25T20:52:07.700Z,65.72
2023-01-25T20:54:38.367Z,55.65
2023-01-25T20:57:07.866Z,51.08
2023-01-25T20:59:37.369Z,55.00
2023-01-25T21:02:06.934Z,61.85
2023-01-25T21:04:36.157Z,56.30
2023-01-25T21:07:06.986Z,66.20
2023-01-25T21:09:36.516Z,61.83
2023-01-25T21:12:06.234Z,61.88
2023-01-25T21:14:35.535Z,58.60
2023-01-25T21:17:05.119Z,62.03
2023-01-25T21:19:34.493Z,52.83
2023-01-25T21:22:03.896Z,51.55
2023-01-25T21:24:34.732Z,56.60
2023-01-25T21:27:04.410Z,58.75
2023-01-25T21:29:34.161Z,55.67
2023-01-25T21:32:04.649Z,49.72
2023-01-25T21:34:34.393Z,54.67
2023-01-25T21:37:03.831Z,52.35
2023-01-25T21:39:35.707Z,59.33
2023-01-25T21:42:05.297Z,57.58
2023-01-25T21:44:52.925Z,55.45
2023-01-25T21:47:31.140Z,49.42
2023-01-25T21:50:15.415Z,56.28
2023-01-25T21:55:18.155Z,51.83
2023-01-25T21:57:47.765Z,46.93
2023-01-25T22:00:17.994Z,50.47
2023-01-25T22:02:47.511Z,51.00
2023-01-25T22:05:17.310Z,50.58
2023-01-25T22:07:46.752Z,53.95
2023-01-25T22:10:17.999Z,49.90
2023-01-25T22:12:50.738Z,46.92
2023-01-25T22:15:20.052Z,45.25
